createdAt,value
2019-05-26T00:00:10.669Z,8.48
2019-05-26T00:02:39.800Z,9.95
2019-05-26T00:05:09.186Z,8.33
2019-05-26T00:07:38.423Z,8.63
2019-05-26T00:10:08.391Z,9.63
2019-05-26T00:12:37.605Z,7.75
2019-05-26T00:15:07.680Z,9.43
2019-05-26T00:17:36.825Z,8.98
2019-05-26T00:20:08.486Z,9.38
2019-05-26T00:22:37.602Z,12.40
2019-05-26T00:25:08.508Z,10.20
2019-05-26T00:27:37.685Z,10.93
2019-05-26T00:30:11.303Z,9.78
2019-05-26T00:32:40.550Z,8.78
2019-05-26T00:35:09.644Z,12.13
2019-05-26T00:37:49.249Z,11.75
2019-05-26T00:40:10.211Z,10.65
2019-05-26T00:42:39.304Z,12.15
2019-05-26T00:45:09.953Z,12.40
2019-05-26T00:47:39.290Z,12.68
2019-05-26T00:50:09.824Z,10.82
2019-05-26T00:52:39.535Z,11.73
2019-05-26T00:55:09.164Z,11.22
2019-05-26T00:57:38.330Z,11.10
2019-05-26T01:00:09.581Z,13.18
2019-05-26T01:02:38.743Z,14.70
2019-05-26T01:05:09.254Z,10.32
2019-05-26T01:07:38.451Z,12.63
2019-05-26T01:10:08.687Z,12.53
2019-05-26T01:12:37.861Z,14.90
2019-05-26T01:15:08.278Z,12.88
2019-05-26T01:17:37.601Z,9.93
2019-05-26T01:20:07.516Z,11.12
2019-05-26T01:22:36.612Z,11.43
2019-05-26T01:25:07.032Z,12.15
2019-05-26T01:27:36.543Z,12.70
2019-05-26T01:30:07.551Z,13.25
2019-05-26T01:32:36.651Z,13.83
2019-05-26T01:35:09.490Z,13.90
2019-05-26T01:37:39.764Z,13.70
2019-05-26T01:40:09.211Z,13.45
2019-05-26T01:42:38.360Z,12.68
2019-05-26T01:45:08.306Z,13.32
2019-05-26T01:47:37.739Z,12.70
2019-05-26T01:50:07.457Z,13.32
2019-05-26T01:52:36.668Z,11.57
2019-05-26T01:55:07.121Z,14.00
2019-05-26T01:57:36.468Z,12.25
2019-05-26T02:00:07.456Z,14.98
2019-05-26T02:02:36.620Z,14.58
2019-05-26T02:05:06.224Z,14.75
2019-05-26T02:07:35.338Z,14.43
2019-05-26T02:10:09.168Z,14.07
2019-05-26T02:12:38.355Z,14.55
2019-05-26T02:15:08.976Z,12.68
2019-05-26T02:17:38.071Z,12.20
2019-05-26T02:20:08.397Z,15.03
2019-05-26T02:22:37.656Z,14.68
2019-05-26T02:25:10.806Z,14.40
2019-05-26T02:27:39.983Z,15.05
2019-05-26T02:30:10.310Z,14.40
2019-05-26T02:32:39.571Z,16.45
2019-05-26T02:35:09.484Z,14.35
2019-05-26T02:37:38.779Z,14.58
2019-05-26T02:40:09.768Z,16.95
2019-05-26T02:42:39.184Z,15.80
2019-05-26T02:45:10.488Z,15.18
2019-05-26T02:47:39.659Z,17.30
2019-05-26T02:50:09.363Z,18.25
2019-05-26T02:52:38.533Z,15.80
2019-05-26T02:55:09.563Z,18.40
2019-05-26T02:57:38.733Z,16.37
2019-05-26T03:00:12.284Z,17.15
2019-05-26T03:02:41.625Z,16.45
2019-05-26T03:05:11.737Z,19.42
2019-05-26T03:07:43.629Z,16.87
2019-05-26T03:10:16.306Z,17.85
2019-05-26T03:12:46.925Z,19.65
2019-05-26T03:15:16.390Z,17.30
2019-05-26T03:17:47.380Z,19.67
2019-05-26T03:20:16.919Z,17.10
2019-05-26T03:22:49.026Z,20.23
2019-05-26T03:25:18.544Z,17.60
2019-05-26T03:27:47.723Z,19.15
2019-05-26T03:30:17.048Z,18.30
2019-05-26T03:32:46.326Z,15.68
2019-05-26T03:35:15.480Z,19.92
2019-05-26T03:37:44.658Z,19.80
2019-05-26T03:40:14.301Z,18.20
2019-05-26T03:42:43.476Z,19.25
2019-05-26T03:45:24.366Z,18.60
2019-05-26T03:47:53.640Z,17.07
2019-05-26T03:50:22.929Z,17.70
2019-05-26T03:52:52.083Z,17.77
2019-05-26T03:55:21.323Z,18.37
2019-05-26T03:57:50.481Z,17.32
2019-05-26T04:00:20.440Z,19.87
2019-05-26T04:02:49.613Z,19.05
2019-05-26T04:05:18.840Z,19.12
2019-05-26T04:07:48.014Z,17.60
2019-05-26T04:10:17.425Z,19.48
2019-05-26T04:12:46.572Z,20.37
2019-05-26T04:15:15.805Z,19.30
2019-05-26T04:17:44.983Z,17.65
2019-05-26T04:20:14.325Z,18.20
2019-05-26T04:22:43.608Z,18.12
2019-05-26T04:25:13.016Z,18.23
2019-05-26T04:27:42.205Z,18.25
2019-05-26T04:30:11.844Z,18.10
2019-05-26T04:32:41.059Z,17.87
2019-05-26T04:35:10.526Z,17.98
2019-05-26T04:37:39.617Z,18.02
2019-05-26T04:40:25.753Z,17.55
2019-05-26T04:42:39.777Z,18.17
2019-05-26T04:45:09.099Z,18.62
2019-05-26T04:47:38.268Z,19.55
2019-05-26T04:50:08.287Z,16.82
2019-05-26T04:52:37.545Z,18.37
2019-05-26T04:55:08.496Z,17.42
2019-05-26T04:57:37.680Z,16.35
2019-05-26T05:00:07.562Z,17.67
2019-05-26T05:02:36.809Z,16.77
2019-05-26T05:05:07.530Z,16.37
2019-05-26T05:07:36.713Z,17.75
2019-05-26T05:10:06.548Z,16.73
2019-05-26T05:12:35.731Z,15.60
2019-05-26T05:15:07.520Z,16.90
2019-05-26T05:17:36.716Z,16.07
2019-05-26T05:20:07.700Z,16.62
2019-05-26T05:22:36.893Z,15.75
2019-05-26T05:25:14.616Z,15.63
2019-05-26T05:27:39.909Z,15.10
2019-05-26T05:30:10.047Z,16.95
2019-05-26T05:32:39.230Z,17.35
2019-05-26T05:35:09.978Z,14.90
2019-05-26T05:37:39.163Z,17.30
2019-05-26T05:40:08.671Z,15.13
2019-05-26T05:42:37.917Z,13.68
2019-05-26T05:45:08.737Z,14.38
2019-05-26T05:47:37.904Z,12.70
2019-05-26T05:50:09.410Z,14.43
2019-05-26T05:52:38.640Z,14.20
2019-05-26T05:55:08.019Z,13.78
2019-05-26T05:57:37.184Z,12.58
2019-05-26T06:00:08.667Z,12.78
2019-05-26T06:02:37.913Z,12.37
2019-05-26T06:05:08.110Z,16.32
2019-05-26T06:07:37.303Z,11.53
2019-05-26T06:10:10.117Z,13.35
2019-05-26T06:12:39.276Z,15.70
2019-05-26T06:15:12.639Z,13.20
2019-05-26T06:17:42.610Z,12.15
2019-05-26T06:20:12.349Z,11.88
2019-05-26T06:22:41.524Z,14.93
2019-05-26T06:25:10.871Z,14.85
2019-05-26T06:27:40.009Z,11.43
2019-05-26T06:30:10.421Z,11.88
2019-05-26T06:32:39.685Z,10.90
2019-05-26T06:35:09.525Z,10.45
2019-05-26T06:37:38.686Z,10.85
2019-05-26T06:40:08.096Z,12.78
2019-05-26T06:42:37.359Z,10.35
2019-05-26T06:45:07.302Z,13.00
2019-05-26T06:47:36.479Z,12.15
2019-05-26T06:50:07.019Z,13.58
2019-05-26T06:52:36.245Z,12.28
2019-05-26T06:55:06.973Z,12.63
2019-05-26T06:57:36.076Z,15.55
2019-05-26T07:00:06.678Z,12.30
2019-05-26T07:02:35.780Z,11.57
2019-05-26T07:05:08.456Z,11.45
2019-05-26T07:07:37.612Z,10.72
2019-05-26T07:10:07.184Z,10.63
2019-05-26T07:12:37.306Z,11.60
2019-05-26T07:15:08.919Z,10.20
2019-05-26T07:17:38.113Z,9.80
2019-05-26T07:20:08.224Z,10.72
2019-05-26T07:22:37.457Z,10.40
2019-05-26T07:25:08.256Z,10.58
2019-05-26T07:27:37.425Z,9.05
2019-05-26T07:30:08.195Z,9.30
2019-05-26T07:32:37.435Z,10.80
2019-05-26T07:35:07.606Z,9.75
2019-05-26T07:37:36.762Z,8.33
2019-05-26T07:40:06.689Z,10.40
2019-05-26T07:42:35.915Z,10.13
2019-05-26T07:45:06.931Z,8.10
2019-05-26T07:47:36.085Z,8.68
2019-05-26T07:50:07.215Z,9.43
2019-05-26T07:52:36.436Z,8.33
2019-05-26T07:55:06.673Z,8.33
2019-05-26T07:57:35.819Z,6.62
2019-05-26T08:00:08.120Z,7.28
2019-05-26T08:02:37.263Z,8.20
2019-05-26T08:05:08.147Z,9.88
2019-05-26T08:07:37.336Z,7.75
2019-05-26T08:10:07.540Z,8.55
2019-05-26T08:12:36.703Z,9.05
2019-05-26T08:15:06.939Z,9.73
2019-05-26T08:17:36.135Z,7.28
2019-05-26T08:20:10.743Z,5.72
2019-05-26T08:22:40.056Z,4.83
2019-05-26T08:25:09.668Z,5.15
2019-05-26T08:27:38.818Z,6.25
2019-05-26T08:30:08.622Z,3.90
2019-05-26T08:32:37.906Z,3.42
2019-05-26T08:35:10.159Z,7.72
2019-05-26T08:37:39.237Z,3.58
2019-05-26T08:40:18.415Z,5.62
2019-05-26T08:42:49.909Z,4.28
2019-05-26T08:45:21.906Z,4.33
2019-05-26T08:47:51.577Z,3.95
2019-05-26T08:50:22.150Z,9.98
2019-05-26T08:52:51.337Z,4.12
2019-05-26T08:55:21.122Z,5.70
2019-05-26T08:57:50.287Z,4.28
2019-05-26T09:00:19.949Z,5.85
2019-05-26T09:02:49.117Z,5.10
2019-05-26T09:05:20.579Z,6.05
2019-05-26T09:07:49.737Z,4.80
2019-05-26T09:10:19.472Z,6.75
2019-05-26T09:13:00.431Z,5.95
2019-05-26T09:15:20.502Z,5.20
2019-05-26T09:17:49.668Z,8.65
2019-05-26T09:20:19.365Z,5.47
2019-05-26T09:22:48.450Z,6.22
2019-05-26T09:25:18.027Z,7.83
2019-05-26T09:27:47.240Z,9.88
2019-05-26T09:30:17.789Z,6.03
2019-05-26T09:32:47.030Z,9.35
2019-05-26T09:35:16.403Z,6.60
2019-05-26T09:37:45.570Z,7.05
2019-05-26T09:40:15.987Z,7.05
2019-05-26T09:42:45.239Z,6.83
2019-05-26T09:45:16.931Z,6.92
2019-05-26T09:47:46.145Z,10.00
2019-05-26T09:50:15.660Z,7.45
2019-05-26T09:52:44.822Z,8.10
2019-05-26T09:55:15.732Z,8.75
2019-05-26T09:57:44.899Z,9.80
2019-05-26T10:00:16.351Z,6.95
2019-05-26T10:02:45.740Z,7.62
2019-05-26T10:05:14.957Z,6.58
2019-05-26T10:07:44.295Z,5.53
2019-05-26T10:10:14.653Z,4.65
2019-05-26T10:12:43.751Z,7.97
2019-05-26T10:15:13.657Z,7.28
2019-05-26T10:17:42.884Z,6.17
2019-05-26T10:20:12.470Z,6.22
2019-05-26T10:22:41.547Z,6.17
2019-05-26T10:25:11.037Z,4.40
2019-05-26T10:27:40.132Z,7.10
2019-05-26T10:30:11.446Z,7.33
2019-05-26T10:32:41.034Z,4.28
2019-05-26T10:35:11.419Z,4.90
2019-05-26T10:37:40.319Z,6.07
2019-05-26T10:40:10.403Z,7.00
2019-05-26T10:42:39.409Z,5.53
2019-05-26T10:45:09.318Z,6.77
2019-05-26T10:47:38.592Z,6.03
2019-05-26T10:50:12.639Z,7.05
2019-05-26T10:52:41.809Z,7.10
2019-05-26T10:55:11.552Z,5.60
2019-05-26T10:57:40.452Z,4.50
2019-05-26T11:00:10.340Z,4.27
2019-05-26T11:02:39.188Z,4.30
2019-05-26T11:05:08.592Z,5.37
2019-05-26T11:07:37.518Z,3.60
2019-05-26T11:10:07.433Z,4.43
2019-05-26T11:12:36.506Z,5.80
2019-05-26T11:15:09.354Z,5.57
2019-05-26T11:17:38.182Z,5.00
2019-05-26T11:20:08.502Z,5.27
2019-05-26T11:22:37.414Z,6.47
2019-05-26T11:25:07.474Z,5.73
2019-05-26T11:27:36.454Z,7.27
2019-05-26T11:30:13.153Z,7.03
2019-05-26T11:32:41.953Z,5.47
2019-05-26T11:35:11.280Z,4.13
2019-05-26T11:37:40.179Z,4.83
2019-05-26T11:40:09.465Z,4.23
2019-05-26T11:42:38.334Z,3.43
2019-05-26T11:45:09.027Z,5.90
2019-05-26T11:47:37.874Z,4.37
2019-05-26T11:50:10.522Z,4.13
2019-05-26T11:52:39.300Z,3.67
2019-05-26T11:55:09.203Z,7.13
2019-05-26T11:57:37.999Z,4.37
2019-05-26T12:00:13.098Z,3.47
2019-05-26T12:02:42.189Z,3.83
2019-05-26T12:05:12.696Z,3.37
2019-05-26T12:07:41.568Z,5.93
2019-05-26T12:10:14.231Z,6.40
2019-05-26T12:12:41.834Z,5.23
2019-05-26T12:15:11.438Z,3.40
2019-05-26T12:17:40.363Z,3.10
2019-05-26T12:20:09.895Z,2.47
2019-05-26T12:22:38.674Z,3.13
2019-05-26T12:25:07.977Z,2.77
2019-05-26T12:27:36.934Z,7.70
2019-05-26T12:30:07.957Z,2.47
2019-05-26T12:32:36.809Z,4.57
2019-05-26T12:35:07.808Z,2.80
2019-05-26T12:37:37.103Z,2.97
2019-05-26T12:40:07.239Z,5.77
2019-05-26T12:42:36.192Z,3.43
2019-05-26T12:45:09.490Z,3.90
2019-05-26T12:47:38.397Z,3.13
2019-05-26T12:50:07.908Z,3.40
2019-05-26T12:52:37.080Z,3.47
2019-05-26T12:55:09.488Z,4.87
2019-05-26T12:57:38.221Z,4.50
2019-05-26T13:00:08.299Z,3.23
2019-05-26T13:02:37.163Z,2.20
2019-05-26T13:05:08.263Z,2.67
2019-05-26T13:07:37.240Z,3.47
2019-05-26T13:10:08.122Z,4.53
2019-05-26T13:12:36.993Z,2.70
2019-05-26T13:15:10.714Z,2.10
2019-05-26T13:17:39.499Z,2.20
2019-05-26T13:20:10.447Z,2.63
2019-05-26T13:22:40.783Z,3.13
2019-05-26T13:25:10.907Z,3.60
2019-05-26T13:27:39.843Z,2.63
2019-05-26T13:30:10.723Z,2.93
2019-05-26T13:32:39.573Z,2.73
2019-05-26T13:35:09.091Z,2.60
2019-05-26T13:37:37.906Z,2.27
2019-05-26T13:40:08.525Z,2.20
2019-05-26T13:42:37.623Z,1.83
2019-05-26T13:45:21.091Z,2.07
2019-05-26T13:47:39.095Z,2.10
2019-05-26T13:50:08.820Z,1.83
2019-05-26T13:52:37.759Z,3.93
2019-05-26T13:55:08.903Z,2.27
2019-05-26T13:57:37.783Z,2.90
2019-05-26T14:00:14.520Z,3.27
2019-05-26T14:02:43.465Z,3.20
2019-05-26T14:05:12.732Z,2.07
2019-05-26T14:07:41.796Z,6.40
2019-05-26T14:10:11.120Z,2.33
2019-05-26T14:12:40.053Z,2.43
2019-05-26T14:15:09.851Z,3.53
2019-05-26T14:17:39.575Z,3.23
2019-05-26T14:20:13.557Z,3.33
2019-05-26T14:22:42.437Z,1.83
2019-05-26T14:25:11.518Z,1.57
2019-05-26T14:27:40.449Z,2.27
2019-05-26T14:30:09.759Z,2.10
2019-05-26T14:32:38.659Z,1.90
2019-05-26T14:35:07.720Z,2.60
2019-05-26T14:37:36.594Z,2.83
2019-05-26T14:40:07.852Z,2.17
2019-05-26T14:42:36.734Z,1.60
2019-05-26T14:45:09.231Z,1.47
2019-05-26T14:47:38.098Z,1.80
2019-05-26T14:50:08.980Z,1.57
2019-05-26T14:52:37.776Z,1.50
2019-05-26T14:55:07.123Z,1.67
2019-05-26T14:57:36.052Z,2.23
2019-05-26T15:00:07.537Z,2.70
2019-05-26T15:02:36.572Z,2.70
2019-05-26T15:05:08.060Z,3.47
2019-05-26T15:07:37.069Z,3.33
2019-05-26T15:10:08.314Z,1.93
2019-05-26T15:12:37.510Z,3.67
2019-05-26T15:15:07.238Z,2.43
2019-05-26T15:17:36.084Z,2.60
2019-05-26T15:20:06.584Z,2.23
2019-05-26T15:22:35.681Z,1.63
2019-05-26T15:25:06.462Z,1.73
2019-05-26T15:27:35.868Z,1.63
2019-05-26T15:30:06.658Z,2.60
2019-05-26T15:32:35.620Z,1.30
2019-05-26T15:35:06.571Z,3.00
2019-05-26T15:37:35.496Z,1.97
2019-05-26T15:40:05.932Z,3.43
2019-05-26T15:42:34.849Z,3.57
2019-05-26T15:45:05.352Z,1.43
2019-05-26T15:47:34.221Z,1.90
2019-05-26T15:50:04.422Z,2.00
2019-05-26T15:52:33.304Z,1.30
2019-05-26T15:55:02.170Z,1.60
2019-05-26T15:57:31.191Z,2.40
2019-05-26T16:00:00.140Z,1.57
2019-05-26T16:02:29.083Z,1.50
2019-05-26T16:04:59.005Z,1.13
2019-05-26T16:07:28.187Z,1.77
2019-05-26T16:09:57.064Z,1.20
2019-05-26T16:12:25.924Z,1.20
2019-05-26T16:14:54.905Z,2.70
2019-05-26T16:17:23.824Z,1.50
2019-05-26T16:19:52.645Z,1.33
2019-05-26T16:22:21.498Z,1.23
2019-05-26T16:24:50.295Z,1.70
2019-05-26T16:27:19.928Z,2.80
2019-05-26T16:29:49.392Z,1.23
2019-05-26T16:32:19.093Z,3.13
2019-05-26T16:34:48.034Z,1.70
2019-05-26T16:37:16.840Z,3.00
2019-05-26T16:39:45.710Z,2.90
2019-05-26T16:42:14.588Z,2.50
2019-05-26T16:44:43.447Z,1.60
2019-05-26T16:47:12.240Z,1.67
2019-05-26T16:49:41.104Z,2.47
2019-05-26T16:52:09.907Z,2.03
2019-05-26T16:54:38.783Z,1.30
2019-05-26T16:57:07.785Z,1.80
2019-05-26T16:59:36.656Z,1.60
2019-05-26T17:02:05.505Z,5.07
2019-05-26T17:04:34.380Z,1.97
2019-05-26T17:07:03.303Z,1.63
2019-05-26T17:09:32.105Z,1.70
2019-05-26T17:12:00.969Z,1.67
2019-05-26T17:14:29.846Z,2.83
2019-05-26T17:17:13.517Z,2.53
2019-05-26T17:19:29.366Z,1.93
2019-05-26T17:21:58.242Z,1.73
2019-05-26T17:24:27.113Z,2.20
2019-05-26T17:26:55.985Z,1.77
2019-05-26T17:29:24.843Z,1.80
2019-05-26T17:31:53.725Z,1.73
2019-05-26T17:34:22.581Z,2.77
2019-05-26T17:36:51.451Z,2.30
2019-05-26T17:39:20.231Z,2.10
2019-05-26T17:41:49.023Z,2.17
2019-05-26T17:44:17.818Z,2.17
2019-05-26T17:46:46.671Z,2.00
2019-05-26T17:49:15.461Z,2.33
2019-05-26T17:51:44.329Z,1.87
2019-05-26T17:54:13.193Z,2.37
2019-05-26T17:56:41.978Z,2.57
2019-05-26T17:59:10.793Z,2.00
2019-05-26T18:01:39.581Z,4.27
2019-05-26T18:04:08.450Z,2.50
2019-05-26T18:06:37.251Z,2.00
2019-05-26T18:09:07.847Z,1.80
2019-05-26T18:11:36.725Z,2.10
2019-05-26T18:14:05.511Z,2.30
2019-05-26T18:16:34.402Z,1.97
2019-05-26T18:19:03.261Z,3.00
2019-05-26T18:21:32.411Z,1.85
2019-05-26T18:24:01.475Z,2.72
2019-05-26T18:26:30.663Z,2.05
2019-05-26T18:28:59.885Z,2.02
2019-05-26T18:31:29.253Z,2.97
2019-05-26T18:33:58.599Z,2.15
2019-05-26T18:36:27.536Z,3.43
2019-05-26T18:38:56.690Z,2.17
2019-05-26T18:41:25.946Z,2.08
2019-05-26T18:43:54.792Z,2.93
2019-05-26T18:46:25.750Z,2.50
2019-05-26T18:48:54.900Z,2.65
2019-05-26T18:51:23.702Z,2.90
2019-05-26T18:53:52.902Z,2.08
2019-05-26T18:56:22.087Z,2.20
2019-05-26T18:58:50.949Z,2.50
2019-05-26T19:01:19.873Z,3.43
2019-05-26T19:03:48.655Z,3.03
2019-05-26T19:06:17.819Z,2.00
2019-05-26T19:08:47.001Z,2.17
2019-05-26T19:11:15.847Z,2.70
2019-05-26T19:13:45.079Z,1.98
2019-05-26T19:16:13.863Z,3.20
2019-05-26T19:18:43.034Z,2.47
2019-05-26T19:21:11.905Z,3.57
2019-05-26T19:23:41.054Z,2.50
2019-05-26T19:26:09.901Z,2.43
2019-05-26T19:28:38.967Z,3.08
2019-05-26T19:31:08.112Z,3.90
2019-05-26T19:33:37.287Z,3.87
2019-05-26T19:36:09.580Z,3.37
2019-05-26T19:38:37.432Z,3.20
2019-05-26T19:41:06.514Z,3.00
2019-05-26T19:43:35.703Z,2.75
2019-05-26T19:46:05.272Z,2.50
2019-05-26T19:48:36.963Z,2.95
2019-05-26T19:51:05.555Z,2.30
2019-05-26T19:53:34.622Z,3.12
2019-05-26T19:56:03.954Z,2.65
2019-05-26T19:58:33.112Z,2.50
2019-05-26T20:01:02.254Z,3.77
2019-05-26T20:03:31.429Z,4.87
2019-05-26T20:06:00.573Z,2.58
2019-05-26T20:08:29.729Z,3.65
2019-05-26T20:10:58.808Z,3.35
2019-05-26T20:13:27.976Z,3.55
2019-05-26T20:15:57.137Z,3.55
2019-05-26T20:18:26.290Z,4.42
2019-05-26T20:20:55.481Z,2.70
2019-05-26T20:23:24.567Z,2.42
2019-05-26T20:25:53.649Z,4.50
2019-05-26T20:28:22.792Z,3.67
2019-05-26T20:30:51.941Z,3.17
2019-05-26T20:33:21.047Z,4.03
2019-05-26T20:35:50.192Z,4.30
2019-05-26T20:38:19.351Z,3.50
2019-05-26T20:40:48.547Z,3.87
2019-05-26T20:43:17.716Z,5.75
2019-05-26T20:45:46.852Z,3.70
2019-05-26T20:48:16.008Z,3.60
2019-05-26T20:50:45.158Z,3.20
2019-05-26T20:53:14.317Z,5.25
2019-05-26T20:55:43.815Z,3.40
2019-05-26T20:58:12.895Z,3.62
2019-05-26T21:00:41.978Z,4.03
2019-05-26T21:03:11.057Z,4.92
2019-05-26T21:05:40.303Z,3.87
2019-05-26T21:08:09.448Z,5.97
2019-05-26T21:10:38.551Z,5.53
2019-05-26T21:13:07.761Z,4.70
2019-05-26T21:15:36.923Z,5.25
2019-05-26T21:18:06.156Z,5.03
2019-05-26T21:20:35.234Z,4.45
2019-05-26T21:23:04.361Z,8.20
2019-05-26T21:25:33.453Z,5.67
2019-05-26T21:28:02.663Z,3.58
2019-05-26T21:30:31.822Z,5.22
2019-05-26T21:33:00.891Z,5.67
2019-05-26T21:35:30.055Z,7.22
2019-05-26T21:37:59.196Z,6.45
2019-05-26T21:40:28.323Z,4.17
2019-05-26T21:42:57.391Z,6.05
2019-05-26T21:45:26.479Z,7.25
2019-05-26T21:47:55.617Z,4.22
2019-05-26T21:50:24.711Z,4.65
2019-05-26T21:52:53.796Z,4.08
2019-05-26T21:55:22.959Z,5.42
2019-05-26T21:57:52.127Z,3.92
2019-05-26T22:00:23.653Z,5.10
2019-05-26T22:02:52.801Z,9.33
2019-05-26T22:05:21.991Z,5.50
2019-05-26T22:07:51.113Z,5.03
2019-05-26T22:10:20.617Z,8.45
2019-05-26T22:12:49.834Z,8.63
2019-05-26T22:15:19.134Z,10.45
2019-05-26T22:17:48.351Z,5.83
2019-05-26T22:20:18.242Z,5.35
2019-05-26T22:22:47.336Z,8.58
2019-05-26T22:25:16.466Z,6.40
2019-05-26T22:27:45.595Z,6.12
2019-05-26T22:30:14.975Z,6.62
2019-05-26T22:32:44.137Z,10.43
2019-05-26T22:35:13.581Z,8.25
2019-05-26T22:37:42.652Z,5.12
2019-05-26T22:40:12.249Z,7.95
2019-05-26T22:42:41.397Z,6.72
2019-05-26T22:45:10.871Z,6.12
2019-05-26T22:47:40.044Z,6.70
2019-05-26T22:50:09.712Z,8.05
2019-05-26T22:52:38.802Z,4.55
2019-05-26T22:55:08.531Z,5.72
2019-05-26T22:57:37.679Z,6.30
2019-05-26T23:00:08.284Z,10.63
2019-05-26T23:02:37.513Z,9.18
2019-05-26T23:05:07.754Z,7.15
2019-05-26T23:07:36.924Z,5.92
2019-05-26T23:10:07.984Z,6.80
2019-05-26T23:12:37.163Z,7.00
2019-05-26T23:15:09.630Z,5.08
2019-05-26T23:17:39.047Z,6.12
2019-05-26T23:20:08.888Z,6.53
2019-05-26T23:22:37.965Z,4.95
2019-05-26T23:25:08.170Z,6.22
2019-05-26T23:27:37.407Z,8.83
2019-05-26T23:30:07.884Z,5.47
2019-05-26T23:32:36.981Z,7.12
2019-05-26T23:35:06.793Z,7.42
2019-05-26T23:37:36.237Z,4.58
2019-05-26T23:40:08.520Z,8.08
2019-05-26T23:42:37.736Z,7.95
2019-05-26T23:45:07.814Z,4.85
2019-05-26T23:47:36.988Z,4.97
2019-05-26T23:50:07.891Z,4.95
2019-05-26T23:52:37.127Z,6.70
2019-05-26T23:55:07.261Z,5.05
2019-05-26T23:57:36.360Z,5.67
